Time;durP1;ratioP1;P1;durP2;ratioP2;P2;SDS_P1;SDS_P2;PMS_P1;PMS_P2;Temp;Humidity;BMP_temperature;BMP_pressure;BME280_temperature;BME280_humidity;BME280_pressure;Samples;Min_cycle;Max_cycle;Signal;HPM_P1;HPM_P2
2023/02/20 00:01:58;;;;;;;6.68;3.00;;;6.90;99.90;;;;;;4991788;28;20058;-60
2023/02/20 00:04:25;;;;;;;7.85;3.05;;;6.90;99.90;;;;;;4992271;28;20454;-58
2023/02/20 00:06:51;;;;;;;10.30;3.40;;;6.90;99.90;;;;;;4993100;28;20038;-63
2023/02/20 00:09:18;;;;;;;5.20;2.63;;;6.90;99.90;;;;;;4994279;28;20093;-60
2023/02/20 00:11:45;;;;;;;9.90;3.33;;;6.80;99.90;;;;;;4994040;28;20043;-57
2023/02/20 00:14:12;;;;;;;11.05;3.72;;;6.80;99.90;;;;;;4993118;28;20096;-60
2023/02/20 00:16:39;;;;;;;10.13;3.22;;;6.80;99.90;;;;;;4994071;28;20470;-59
2023/02/20 00:19:06;;;;;;;8.90;3.28;;;6.80;99.90;;;;;;4987500;28;20097;-61
2023/02/20 00:21:32;;;;;;;9.10;3.08;;;6.70;99.90;;;;;;4987667;28;20050;-59
2023/02/20 00:23:59;;;;;;;8.88;3.40;;;6.70;99.90;;;;;;4997041;28;20054;-57
2023/02/20 00:26:26;;;;;;;8.25;3.33;;;6.70;99.90;;;;;;4996307;28;20392;-60
2023/02/20 00:28:52;;;;;;;13.52;3.88;;;6.60;99.90;;;;;;4997428;28;20038;-60
2023/02/20 00:31:19;;;;;;;6.88;3.00;;;6.60;99.90;;;;;;4996775;28;20042;-60
2023/02/20 00:33:46;;;;;;;8.10;3.47;;;6.60;99.90;;;;;;4995165;28;20063;-59
2023/02/20 00:36:14;;;;;;;7.53;3.25;;;6.60;99.90;;;;;;4993361;28;20453;-60
2023/02/20 00:38:41;;;;;;;10.48;3.13;;;6.60;99.90;;;;;;4991271;28;20050;-61
2023/02/20 00:41:10;;;;;;;8.70;3.13;;;6.60;99.90;;;;;;4999669;28;20050;-62
2023/02/20 00:43:37;;;;;;;7.03;3.00;;;6.50;99.90;;;;;;4999857;28;20056;-59
2023/02/20 00:46:04;;;;;;;8.90;3.15;;;6.50;99.90;;;;;;4998092;28;20046;-61
2023/02/20 00:48:31;;;;;;;10.00;3.05;;;6.50;99.90;;;;;;5000253;28;20043;-57
2023/02/20 00:51:16;;;;;;;10.23;3.45;;;6.50;99.90;;;;;;5000299;28;20548;-60
2023/02/20 00:53:44;;;;;;;8.95;3.33;;;6.50;99.90;;;;;;5000064;28;20038;-61
2023/02/20 00:56:11;;;;;;;7.53;2.95;;;6.50;99.90;;;;;;4999018;28;20046;-61
2023/02/20 00:58:38;;;;;;;7.32;3.08;;;6.50;99.90;;;;;;5000191;28;20063;-61
2023/02/20 01:01:05;;;;;;;8.38;3.25;;;6.50;99.90;;;;;;4999914;28;20041;-60
2023/02/20 01:03:32;;;;;;;8.23;2.78;;;6.50;99.90;;;;;;4998750;28;20555;-61
2023/02/20 01:05:59;;;;;;;9.40;3.40;;;6.50;99.90;;;;;;4999166;28;20038;-61
2023/02/20 01:08:25;;;;;;;6.75;3.10;;;6.50;99.90;;;;;;4999852;28;20093;-56
2023/02/20 01:10:52;;;;;;;6.15;3.22;;;6.40;99.90;;;;;;4998782;28;20052;-59
2023/02/20 01:13:19;;;;;;;7.70;3.05;;;6.50;99.90;;;;;;4999271;28;20058;-59
2023/02/20 01:15:45;;;;;;;10.90;3.05;;;6.40;99.90;;;;;;5000205;28;20445;-61
2023/02/20 01:18:12;;;;;;;5.43;3.33;;;6.40;99.90;;;;;;4998692;28;20094;-60
2023/02/20 01:20:39;;;;;;;7.97;3.13;;;6.40;99.90;;;;;;5000167;28;20046;-62
2023/02/20 01:23:06;;;;;;;7.90;3.33;;;6.40;99.90;;;;;;4999831;28;20042;-60
2023/02/20 01:25:33;;;;;;;8.25;2.90;;;6.40;99.90;;;;;;4998554;28;20053;-61
2023/02/20 01:28:00;;;;;;;6.05;2.78;;;6.30;99.90;;;;;;4999072;28;20034;-60
2023/02/20 01:30:27;;;;;;;9.93;3.22;;;6.30;99.90;;;;;;4998432;28;20547;-62
2023/02/20 01:32:53;;;;;;;5.20;2.90;;;6.30;99.90;;;;;;4999783;28;20054;-60
2023/02/20 01:35:20;;;;;;;9.40;3.58;;;6.30;99.90;;;;;;4995191;28;20078;-57
2023/02/20 01:37:47;;;;;;;7.53;3.22;;;6.30;99.90;;;;;;4996794;28;20044;-58
2023/02/20 01:40:14;;;;;;;6.93;3.15;;;6.30;99.90;;;;;;4996851;28;20456;-59
2023/02/20 01:42:40;;;;;;;8.48;3.05;;;6.30;99.90;;;;;;4996331;28;20054;-61
2023/02/20 01:45:07;;;;;;;9.48;3.55;;;6.20;99.90;;;;;;4997013;28;20046;-59
2023/02/20 01:47:34;;;;;;;9.45;3.22;;;6.20;99.90;;;;;;4990028;28;20544;-60
2023/02/20 01:50:05;;;;;;;9.00;3.40;;;6.20;99.90;;;;;;4990269;28;20505;-59
2023/02/20 01:52:34;;;;;;;12.10;3.60;;;6.20;99.90;;;;;;4989802;28;20363;-61
2023/02/20 01:55:01;;;;;;;9.30;3.55;;;6.20;99.90;;;;;;4994874;28;20053;-61
2023/02/20 01:57:28;;;;;;;8.35;3.45;;;6.20;99.90;;;;;;4994827;28;20052;-56
2023/02/20 01:59:55;;;;;;;6.95;3.50;;;6.20;99.90;;;;;;4994773;28;20042;-60
2023/02/20 02:02:21;;;;;;;11.48;3.92;;;6.20;99.90;;;;;;4994792;28;20062;-55
2023/02/20 02:04:48;;;;;;;9.20;3.58;;;6.20;99.90;;;;;;4996347;28;20397;-59
2023/02/20 02:07:15;;;;;;;5.93;3.33;;;6.20;99.90;;;;;;4994226;28;20051;-61
2023/02/20 02:09:42;;;;;;;7.88;3.28;;;6.20;99.90;;;;;;4996041;28;20047;-58
2023/02/20 02:12:08;;;;;;;5.72;3.22;;;6.20;99.90;;;;;;4994896;28;20104;-61
2023/02/20 02:14:35;;;;;;;9.15;3.78;;;6.20;99.90;;;;;;4994656;28;20465;-59
2023/02/20 02:17:02;;;;;;;4.22;3.00;;;6.20;99.90;;;;;;4989629;28;20049;-58
2023/02/20 02:19:29;;;;;;;5.47;3.35;;;6.30;99.90;;;;;;4988730;28;20042;-59
2023/02/20 02:21:56;;;;;;;5.63;3.08;;;6.40;99.90;;;;;;4988203;28;20046;-58
2023/02/20 02:24:22;;;;;;;7.85;3.10;;;6.40;99.90;;;;;;4995659;28;20046;-57
2023/02/20 02:26:49;;;;;;;4.75;3.00;;;6.50;99.90;;;;;;4995673;28;20133;-60
2023/02/20 02:29:16;;;;;;;5.70;3.15;;;6.50;99.90;;;;;;4995611;28;20050;-60
2023/02/20 02:31:43;;;;;;;5.05;2.97;;;6.60;99.90;;;;;;4994642;28;20073;-61
2023/02/20 02:34:09;;;;;;;6.22;2.95;;;6.60;99.90;;;;;;4995068;28;20421;-58
2023/02/20 02:36:36;;;;;;;4.25;2.60;;;6.70;99.90;;;;;;4994245;28;20396;-58
2023/02/20 02:39:03;;;;;;;4.43;2.72;;;6.70;99.90;;;;;;4995586;28;20050;-62
2023/02/20 02:41:29;;;;;;;5.93;2.58;;;6.80;99.90;;;;;;4995575;28;20077;-60
2023/02/20 02:43:56;;;;;;;3.95;2.55;;;6.80;99.90;;;;;;4993628;28;20042;-60
2023/02/20 02:46:23;;;;;;;4.93;2.53;;;6.80;99.90;;;;;;4994115;28;20050;-57
2023/02/20 02:48:49;;;;;;;5.43;3.33;;;6.80;99.90;;;;;;4994030;28;20038;-60
2023/02/20 02:51:16;;;;;;;4.40;2.53;;;6.90;99.90;;;;;;4994033;28;20101;-61
2023/02/20 02:53:43;;;;;;;7.22;2.78;;;6.90;99.90;;;;;;4995393;28;20477;-60
2023/02/20 02:56:22;;;;;;;6.15;2.70;;;6.90;99.90;;;;;;4993453;28;20069;-59
2023/02/20 02:58:49;;;;;;;5.05;2.90;;;7.00;99.90;;;;;;4995246;28;20050;-57
2023/02/20 03:01:15;;;;;;;5.93;3.20;;;7.00;99.90;;;;;;4995060;28;20047;-59
2023/02/20 03:03:42;;;;;;;6.90;3.50;;;7.00;99.90;;;;;;4977852;28;20050;-56
2023/02/20 03:06:11;;;;;;;5.57;3.30;;;7.00;99.90;;;;;;4992901;28;20042;-60
2023/02/20 03:08:38;;;;;;;5.25;3.00;;;7.10;99.90;;;;;;4994647;28;20504;-60
2023/02/20 03:11:04;;;;;;;5.13;3.10;;;7.10;99.90;;;;;;4993460;28;20069;-59
2023/02/20 03:16:16;;;;;;;6.32;3.33;;;7.10;99.90;;;;;;4991096;28;20045;-59
2023/02/20 03:18:43;;;;;;;6.90;3.92;;;7.10;99.90;;;;;;4993385;28;20469;-61
2023/02/20 03:21:10;;;;;;;5.40;3.47;;;7.10;99.90;;;;;;4995212;28;20065;-61
2023/02/20 03:23:37;;;;;;;6.60;3.45;;;7.00;99.90;;;;;;4994670;28;20074;-59
2023/02/20 03:26:03;;;;;;;7.13;4.00;;;7.00;99.90;;;;;;4993548;28;20093;-61
2023/02/20 03:28:30;;;;;;;6.80;3.83;;;7.00;99.90;;;;;;4993521;28;20133;-61
2023/02/20 03:30:58;;;;;;;6.95;3.72;;;7.10;99.90;;;;;;4993375;28;20054;-61
2023/02/20 03:44:29;;;;;;;5.20;4.10;;;7.10;99.90;;;;;;4993047;28;20117;-60
2023/02/20 03:46:56;;;;;;;5.53;3.95;;;7.10;99.90;;;;;;4994445;28;20481;-61
2023/02/20 03:49:23;;;;;;;4.75;3.85;;;7.10;99.90;;;;;;4992936;28;20042;-59
2023/02/20 03:51:56;;;;;;;6.40;3.67;;;7.10;99.90;;;;;;4992194;28;20046;-59
2023/02/20 03:54:33;;;;;;;4.93;4.07;;;7.10;99.90;;;;;;4993290;28;20046;-58
2023/02/20 03:57:00;;;;;;;6.03;4.07;;;7.20;99.90;;;;;;4992980;28;20477;-62
2023/02/20 03:59:27;;;;;;;5.13;3.60;;;7.20;99.90;;;;;;4993012;28;20078;-60
2023/02/20 04:01:54;;;;;;;4.53;3.70;;;7.20;99.90;;;;;;4992608;28;20050;-61
2023/02/20 04:04:20;;;;;;;5.53;3.78;;;7.20;99.90;;;;;;4993967;28;20066;-62
2023/02/20 04:06:47;;;;;;;6.20;4.13;;;7.20;99.90;;;;;;4992510;28;20042;-61
2023/02/20 04:09:14;;;;;;;5.82;3.75;;;7.20;99.90;;;;;;4993701;28;20069;-59
2023/02/20 04:11:42;;;;;;;7.18;3.83;;;7.20;99.90;;;;;;4992845;28;20081;-62
2023/02/20 04:14:08;;;;;;;4.93;3.50;;;7.20;99.90;;;;;;4994047;28;20061;-61
2023/02/20 04:16:36;;;;;;;6.53;3.97;;;7.30;99.90;;;;;;4992647;28;20048;-61
2023/02/20 04:19:03;;;;;;;6.60;4.10;;;7.30;99.90;;;;;;4992884;28;20069;-58
2023/02/20 04:21:30;;;;;;;5.28;3.80;;;7.20;99.90;;;;;;4992575;28;20043;-61
2023/02/20 04:23:58;;;;;;;5.47;4.00;;;7.20;99.90;;;;;;4992621;28;20088;-60
2023/02/20 04:26:25;;;;;;;4.75;3.60;;;7.30;99.90;;;;;;4992542;28;20050;-61
2023/02/20 04:28:53;;;;;;;5.72;4.10;;;7.20;99.90;;;;;;4992278;28;20069;-61
2023/02/20 04:31:20;;;;;;;6.43;4.55;;;7.20;99.90;;;;;;4992562;28;20053;-60
2023/02/20 04:33:48;;;;;;;4.93;3.53;;;7.20;99.90;;;;;;4992291;28;20125;-62
2023/02/20 04:36:19;;;;;;;4.00;3.40;;;7.30;99.90;;;;;;4991910;28;20093;-59
2023/02/20 04:38:46;;;;;;;4.55;3.65;;;7.30;99.90;;;;;;4992649;28;20054;-61
2023/02/20 04:41:16;;;;;;;5.78;3.50;;;7.20;99.90;;;;;;4992742;28;20444;-61
2023/02/20 04:43:43;;;;;;;5.30;3.60;;;7.20;99.90;;;;;;4992595;28;20394;-57
2023/02/20 04:46:10;;;;;;;5.57;3.40;;;7.20;99.90;;;;;;4993540;28;20117;-60
2023/02/20 04:48:39;;;;;;;4.22;3.08;;;7.30;99.90;;;;;;4992237;28;20133;-55
2023/02/20 04:51:05;;;;;;;4.07;3.10;;;7.20;99.90;;;;;;4992579;28;20125;-59
2023/02/20 04:53:33;;;;;;;4.32;2.95;;;7.30;99.90;;;;;;4992376;28;20533;-61
2023/02/20 04:56:00;;;;;;;4.00;3.10;;;7.30;99.90;;;;;;4992480;28;20049;-60
2023/02/20 04:58:27;;;;;;;4.13;2.80;;;7.30;99.90;;;;;;4992024;28;20069;-59
2023/02/20 05:01:03;;;;;;;4.25;2.90;;;7.30;99.90;;;;;;4992223;28;20586;-61
2023/02/20 05:03:30;;;;;;;3.40;2.60;;;7.30;99.90;;;;;;4993353;28;20038;-59
2023/02/20 05:05:57;;;;;;;4.25;2.80;;;7.30;99.90;;;;;;4992913;28;20396;-61
2023/02/20 05:08:24;;;;;;;4.97;2.70;;;7.30;99.90;;;;;;4992278;28;20051;-60
2023/02/20 05:10:50;;;;;;;4.05;2.85;;;7.30;99.90;;;;;;4994373;28;20042;-60
2023/02/20 05:13:17;;;;;;;5.13;2.63;;;7.30;99.90;;;;;;4997267;28;20046;-61
2023/02/20 05:15:44;;;;;;;3.00;2.45;;;7.30;99.90;;;;;;4997032;28;20548;-57
2023/02/20 05:18:11;;;;;;;4.18;2.78;;;7.30;99.90;;;;;;4997115;28;20129;-57
2023/02/20 05:23:22;;;;;;;3.33;2.50;;;7.30;99.90;;;;;;4996810;28;20053;-59
2023/02/20 05:25:49;;;;;;;3.47;2.38;;;7.40;99.90;;;;;;4997073;28;20065;-61
2023/02/20 05:28:16;;;;;;;3.13;2.40;;;7.40;99.90;;;;;;4996825;28;20421;-59
2023/02/20 05:30:43;;;;;;;4.28;2.58;;;7.40;99.90;;;;;;4997148;28;20398;-60
2023/02/20 05:33:10;;;;;;;3.30;2.40;;;7.40;99.90;;;;;;4996854;28;20074;-59
2023/02/20 05:35:38;;;;;;;4.22;2.60;;;7.30;99.90;;;;;;4996765;28;20109;-61
2023/02/20 05:38:05;;;;;;;4.97;2.70;;;7.30;99.90;;;;;;4996926;28;20489;-61
2023/02/20 05:40:32;;;;;;;5.45;2.50;;;7.30;99.90;;;;;;4996469;28;20460;-60
2023/02/20 05:42:59;;;;;;;3.80;2.88;;;7.40;99.90;;;;;;4994999;28;20054;-57
2023/02/20 05:45:25;;;;;;;4.38;2.58;;;7.40;99.90;;;;;;4995489;28;20117;-61
2023/02/20 05:47:52;;;;;;;5.97;2.70;;;7.40;99.90;;;;;;4996550;28;20104;-60
2023/02/20 05:50:19;;;;;;;5.25;2.78;;;7.40;99.90;;;;;;4996740;28;20485;-61
2023/02/20 05:52:46;;;;;;;3.50;2.60;;;7.40;99.90;;;;;;4996292;28;20096;-59
2023/02/20 05:55:12;;;;;;;4.07;2.60;;;7.40;99.90;;;;;;4996540;28;20039;-58
2023/02/20 05:57:39;;;;;;;3.85;2.63;;;7.40;99.90;;;;;;4996446;28;20050;-58
2023/02/20 06:00:06;;;;;;;8.30;2.80;;;7.40;99.90;;;;;;4996509;28;20452;-61
2023/02/20 06:02:37;;;;;;;5.68;2.92;;;7.40;99.90;;;;;;4995125;28;20134;-61
2023/02/20 06:05:05;;;;;;;6.85;2.67;;;7.30;99.90;;;;;;4995109;28;20101;-61
2023/02/20 06:07:32;;;;;;;4.70;2.72;;;7.30;99.90;;;;;;4995012;28;20097;-60
2023/02/20 06:09:58;;;;;;;3.60;2.42;;;7.40;99.90;;;;;;4994309;28;20057;-60
2023/02/20 06:12:25;;;;;;;6.15;2.78;;;7.30;99.90;;;;;;4996168;28;20046;-60
2023/02/20 06:14:52;;;;;;;5.75;2.78;;;7.30;99.90;;;;;;4995942;28;20059;-62
2023/02/20 06:17:19;;;;;;;5.40;2.75;;;7.30;99.90;;;;;;4996196;28;20042;-58
2023/02/20 06:19:46;;;;;;;6.07;2.38;;;7.40;99.90;;;;;;4995902;28;20047;-60
2023/02/20 06:22:13;;;;;;;5.45;2.35;;;7.40;99.90;;;;;;4995732;28;20113;-59
2023/02/20 06:24:40;;;;;;;6.45;2.78;;;7.40;99.90;;;;;;4996058;28;20438;-59
2023/02/20 06:27:07;;;;;;;4.88;2.35;;;7.40;99.90;;;;;;4994669;28;20039;-60
2023/02/20 06:29:34;;;;;;;7.95;2.47;;;7.40;99.90;;;;;;4995712;28;20042;-59
2023/02/20 06:32:01;;;;;;;4.68;2.40;;;7.40;99.90;;;;;;4994555;28;20485;-54
2023/02/20 06:34:31;;;;;;;3.90;2.45;;;7.40;99.90;;;;;;4994578;28;20042;-59
2023/02/20 06:36:58;;;;;;;4.47;2.20;;;7.40;99.90;;;;;;4977710;28;20505;-59
2023/02/20 06:39:25;;;;;;;3.53;2.40;;;7.50;99.90;;;;;;4995463;28;20034;-59
2023/02/20 06:41:52;;;;;;;4.45;2.83;;;7.50;99.90;;;;;;4995238;28;20065;-60
2023/02/20 06:44:18;;;;;;;4.45;2.22;;;7.50;99.90;;;;;;4994134;28;20096;-59
2023/02/20 06:46:45;;;;;;;7.30;2.30;;;7.50;99.90;;;;;;4995469;28;20046;-59
2023/02/20 06:49:13;;;;;;;3.95;2.03;;;7.50;99.90;;;;;;4995211;28;20081;-59
2023/02/20 06:51:39;;;;;;;2.88;2.08;;;7.50;99.90;;;;;;4995340;28;20042;-59
2023/02/20 06:54:06;;;;;;;4.00;1.77;;;7.50;99.90;;;;;;4995087;28;20038;-61
2023/02/20 06:56:33;;;;;;;3.85;2.10;;;7.50;99.90;;;;;;4994994;28;20052;-61
2023/02/20 06:59:00;;;;;;;4.68;2.40;;;7.50;99.90;;;;;;4995248;28;20047;-61
2023/02/20 07:01:27;;;;;;;4.57;2.10;;;7.50;99.90;;;;;;4994793;28;20579;-61
2023/02/20 07:03:54;;;;;;;6.50;2.40;;;7.50;99.90;;;;;;4995310;28;20061;-58
2023/02/20 07:06:21;;;;;;;3.63;2.08;;;7.50;99.90;;;;;;4994351;28;20050;-60
2023/02/20 07:08:47;;;;;;;4.93;2.08;;;7.50;99.90;;;;;;4995042;28;20097;-61
2023/02/20 07:11:14;;;;;;;3.53;2.10;;;7.50;99.90;;;;;;4993863;28;20047;-61
2023/02/20 07:13:41;;;;;;;4.85;2.17;;;7.50;99.90;;;;;;4994184;28;20038;-55
2023/02/20 07:16:08;;;;;;;3.20;2.10;;;7.50;99.90;;;;;;4994752;28;20084;-60
2023/02/20 07:18:34;;;;;;;3.17;2.10;;;7.50;99.90;;;;;;4994833;28;20042;-62
2023/02/20 07:21:01;;;;;;;4.43;2.20;;;7.50;99.90;;;;;;4994573;28;20042;-56
2023/02/20 07:23:28;;;;;;;2.90;1.80;;;7.50;99.90;;;;;;4994370;28;20612;-60
2023/02/20 07:25:55;;;;;;;3.30;2.15;;;7.50;99.90;;;;;;4994086;28;20046;-56
2023/02/20 07:28:21;;;;;;;2.78;2.22;;;7.50;99.90;;;;;;4994488;28;20038;-60
2023/02/20 07:30:48;;;;;;;5.53;2.47;;;7.50;99.90;;;;;;4994259;28;20070;-60
2023/02/20 07:33:15;;;;;;;2.20;1.92;;;7.50;99.90;;;;;;4993666;28;20042;-59
2023/02/20 07:35:41;;;;;;;3.33;2.05;;;7.50;99.90;;;;;;4994813;28;20041;-58
2023/02/20 07:38:08;;;;;;;2.80;2.10;;;7.60;99.90;;;;;;4993537;28;20046;-60
2023/02/20 07:40:35;;;;;;;3.45;1.95;;;7.60;99.90;;;;;;4994621;28;20050;-62
2023/02/20 07:43:05;;;;;;;3.58;2.00;;;7.70;99.90;;;;;;4994664;28;20042;-59
2023/02/20 07:45:37;;;;;;;2.70;2.03;;;7.70;99.90;;;;;;4994503;28;20050;-60
2023/02/20 07:48:05;;;;;;;3.15;2.00;;;7.70;99.90;;;;;;4993461;28;20057;-62
2023/02/20 07:50:31;;;;;;;3.50;2.08;;;7.80;99.90;;;;;;4994636;28;20122;-57
2023/02/20 07:52:58;;;;;;;3.08;2.00;;;7.80;99.90;;;;;;4994281;28;20092;-63
2023/02/20 07:55:25;;;;;;;2.92;2.10;;;7.80;99.90;;;;;;4993449;28;20437;-60
2023/02/20 07:57:53;;;;;;;3.03;2.10;;;7.80;99.90;;;;;;4994597;28;20100;-59
2023/02/20 08:00:20;;;;;;;3.28;2.50;;;7.90;99.90;;;;;;4994537;28;20045;-62
2023/02/20 08:02:46;;;;;;;2.80;1.90;;;7.90;99.90;;;;;;4994263;28;20054;-58
2023/02/20 08:05:13;;;;;;;4.40;1.77;;;7.90;99.90;;;;;;4994725;28;20070;-60
2023/02/20 08:07:40;;;;;;;4.72;2.00;;;7.90;99.90;;;;;;4994162;28;20050;-62
2023/02/20 08:10:07;;;;;;;4.38;2.08;;;7.90;99.90;;;;;;4993045;28;20478;-60
2023/02/20 08:12:33;;;;;;;3.38;1.70;;;7.90;99.90;;;;;;4992980;28;20038;-61
2023/02/20 08:15:00;;;;;;;6.88;2.00;;;7.90;99.90;;;;;;4994035;28;20497;-58
2023/02/20 08:17:27;;;;;;;8.20;2.08;;;7.90;99.90;;;;;;4993594;28;20117;-60
2023/02/20 08:20:11;;;;;;;2.38;1.42;;;7.90;99.90;;;;;;4994523;28;20038;-60
2023/02/20 08:22:38;;;;;;;2.75;1.80;;;8.00;99.90;;;;;;4994368;28;20049;-60
2023/02/20 08:25:07;;;;;;;1.90;1.20;;;8.00;99.90;;;;;;4994171;28;20042;-62
2023/02/20 08:27:37;;;;;;;3.17;1.17;;;8.10;99.90;;;;;;4993843;28;20042;-59
2023/02/20 08:30:04;;;;;;;2.15;1.20;;;8.20;99.90;;;;;;4993308;28;20122;-60
2023/02/20 08:32:31;;;;;;;2.63;1.10;;;8.30;99.90;;;;;;4992418;28;20054;-59
2023/02/20 08:34:58;;;;;;;2.15;1.10;;;8.40;99.90;;;;;;4991196;28;20066;-62
2023/02/20 08:37:24;;;;;;;9.32;1.38;;;8.50;99.90;;;;;;4992491;28;20034;-60
2023/02/20 08:39:51;;;;;;;5.05;1.42;;;8.60;99.90;;;;;;4992762;28;20070;-60
2023/02/20 08:42:18;;;;;;;15.05;2.00;;;8.60;99.90;;;;;;4992773;28;20092;-60
2023/02/20 08:44:45;;;;;;;3.38;1.20;;;8.70;99.90;;;;;;4994234;28;20560;-61
2023/02/20 08:47:11;;;;;;;28.00;2.50;;;8.70;99.90;;;;;;4998340;28;20109;-61
2023/02/20 08:49:38;;;;;;;2.95;1.00;;;8.70;99.90;;;;;;4997541;28;20050;-62
2023/02/20 08:52:05;;;;;;;7.97;1.48;;;8.80;99.90;;;;;;4998142;28;20504;-58
2023/02/20 08:54:32;;;;;;;11.23;1.88;;;8.80;99.90;;;;;;4998190;28;20428;-60
2023/02/20 08:56:58;;;;;;;6.25;1.35;;;8.80;99.90;;;;;;4998409;28;20039;-62
2023/02/20 08:59:25;;;;;;;7.97;1.17;;;8.80;99.90;;;;;;4997765;28;20050;-61
2023/02/20 09:01:52;;;;;;;1.83;1.00;;;8.90;99.90;;;;;;4997444;28;20105;-62
2023/02/20 09:04:20;;;;;;;4.50;1.10;;;8.90;99.90;;;;;;4997686;28;20505;-61
2023/02/20 09:06:47;;;;;;;1.80;1.05;;;8.90;99.90;;;;;;4997940;28;20050;-61
2023/02/20 09:09:14;;;;;;;2.03;0.90;;;8.90;99.90;;;;;;4997810;28;20053;-59
2023/02/20 09:11:41;;;;;;;3.85;0.95;;;8.90;99.90;;;;;;4997895;28;20042;-61
2023/02/20 09:14:08;;;;;;;3.78;1.15;;;8.90;99.90;;;;;;4996135;28;20457;-58
2023/02/20 09:16:34;;;;;;;8.77;1.60;;;9.00;99.90;;;;;;4997544;28;20042;-59
2023/02/20 09:19:01;;;;;;;9.52;1.65;;;9.00;99.90;;;;;;4997793;28;20532;-59
2023/02/20 09:21:28;;;;;;;6.88;1.50;;;9.00;99.90;;;;;;4995814;28;20105;-61
2023/02/20 09:23:55;;;;;;;3.28;1.08;;;9.00;99.90;;;;;;4997316;28;20042;-62
2023/02/20 09:26:22;;;;;;;2.53;1.10;;;9.10;99.90;;;;;;4996944;28;20050;-61
2023/02/20 09:28:48;;;;;;;2.45;1.15;;;9.10;99.90;;;;;;4997280;28;20038;-60
2023/02/20 09:31:15;;;;;;;2.75;1.25;;;9.10;99.90;;;;;;4997258;28;20035;-59
2023/02/20 09:33:42;;;;;;;2.15;1.10;;;9.20;99.90;;;;;;4995520;28;20070;-56
2023/02/20 09:36:09;;;;;;;10.35;1.77;;;9.20;99.90;;;;;;4997091;28;20039;-59
2023/02/20 09:38:35;;;;;;;3.33;1.10;;;9.30;99.90;;;;;;4997308;28;20046;-59
2023/02/20 09:41:02;;;;;;;1.50;0.80;;;9.30;99.90;;;;;;4997059;28;20038;-60
2023/02/20 09:43:29;;;;;;;1.75;1.00;;;9.30;99.90;;;;;;4997032;28;20061;-55
2023/02/20 09:45:56;;;;;;;3.20;0.98;;;9.30;99.90;;;;;;4997514;28;20101;-59
2023/02/20 09:48:23;;;;;;;2.50;1.10;;;9.30;99.90;;;;;;4997255;28;20354;-56
2023/02/20 09:50:49;;;;;;;1.95;0.73;;;9.40;99.90;;;;;;4996628;28;20043;-57
2023/02/20 09:53:16;;;;;;;1.63;1.00;;;9.40;99.90;;;;;;4996852;28;20090;-58
2023/02/20 09:55:43;;;;;;;2.42;1.08;;;9.40;99.90;;;;;;4996219;28;20050;-58
2023/02/20 09:58:10;;;;;;;9.65;7.10;;;9.50;99.90;;;;;;4996905;28;20047;-60
2023/02/20 10:00:37;;;;;;;1.85;1.00;;;9.50;99.90;;;;;;4996750;28;20470;-61
2023/02/20 10:03:03;;;;;;;2.38;1.10;;;9.50;99.90;;;;;;4996029;28;20046;-62
2023/02/20 10:05:31;;;;;;;1.98;1.20;;;9.60;99.90;;;;;;4996248;28;20101;-60
2023/02/20 10:07:58;;;;;;;10.80;1.65;;;9.70;99.90;;;;;;4997052;28;20126;-57
2023/02/20 10:10:25;;;;;;;2.10;1.00;;;9.70;99.90;;;;;;4996240;28;20046;-55
2023/02/20 10:12:52;;;;;;;3.05;1.08;;;9.80;99.90;;;;;;4996629;28;20047;-61
2023/02/20 10:15:19;;;;;;;2.50;1.25;;;9.80;99.90;;;;;;4996798;28;20049;-58
2023/02/20 10:17:46;;;;;;;22.23;3.38;;;9.80;99.90;;;;;;4996234;28;20042;-61
2023/02/20 10:20:13;;;;;;;5.80;1.40;;;9.90;99.90;;;;;;4996324;28;20042;-53
2023/02/20 10:22:40;;;;;;;17.38;1.80;;;9.90;99.90;;;;;;4996354;28;20047;-52
2023/02/20 10:25:07;;;;;;;5.60;1.45;;;10.00;99.90;;;;;;4996308;28;20077;-52
2023/02/20 10:27:34;;;;;;;5.03;1.40;;;10.10;99.90;;;;;;4996397;28;20448;-49
2023/02/20 10:30:01;;;;;;;1.77;1.00;;;10.10;99.90;;;;;;4996201;28;20049;-52
2023/02/20 10:32:28;;;;;;;3.17;1.02;;;10.20;99.90;;;;;;4996088;28;20105;-60
2023/02/20 10:34:54;;;;;;;5.00;1.30;;;10.20;99.90;;;;;;4995660;28;20109;-60
2023/02/20 10:37:21;;;;;;;2.00;1.10;;;10.20;99.90;;;;;;4995787;28;20042;-60
2023/02/20 10:39:48;;;;;;;2.40;0.98;;;10.20;99.90;;;;;;4995668;28;20042;-60
2023/02/20 10:42:15;;;;;;;2.58;1.10;;;10.20;99.90;;;;;;4995952;28;20042;-61
2023/02/20 10:44:41;;;;;;;4.18;1.30;;;10.10;99.90;;;;;;4995687;28;20050;-60
2023/02/20 10:47:18;;;;;;;4.78;1.27;;;10.20;99.90;;;;;;4995990;28;20047;-54
2023/02/20 10:49:45;;;;;;;3.50;1.17;;;10.20;99.90;;;;;;4994577;28;20051;-57
2023/02/20 10:52:11;;;;;;;1.77;0.90;;;10.30;99.90;;;;;;4995697;28;20077;-55
2023/02/20 10:54:58;;;;;;;2.25;1.10;;;10.30;99.90;;;;;;4995595;28;20133;-56
2023/02/20 10:57:25;;;;;;;3.88;1.20;;;10.30;99.90;;;;;;4995769;28;20047;-58
2023/02/20 10:59:53;;;;;;;3.10;1.00;;;10.40;99.90;;;;;;4995440;28;20081;-54
2023/02/20 11:02:19;;;;;;;2.65;1.30;;;10.50;99.90;;;;;;4995091;28;20062;-57
2023/02/20 11:04:46;;;;;;;3.15;1.45;;;10.60;99.90;;;;;;4995914;28;20117;-57
2023/02/20 11:07:13;;;;;;;4.20;0.80;;;10.70;99.90;;;;;;4995624;28;20046;-56
2023/02/20 11:09:40;;;;;;;1.77;0.80;;;10.80;99.90;;;;;;4995339;28;20092;-53
2023/02/20 11:12:07;;;;;;;4.65;0.90;;;10.90;99.90;;;;;;4995463;28;20481;-55
2023/02/20 11:14:33;;;;;;;7.28;1.05;;;11.00;99.90;;;;;;4995212;28;20458;-51
2023/02/20 11:17:06;;;;;;;3.35;1.00;;;11.00;99.90;;;;;;4995415;28;20063;-53
2023/02/20 11:19:33;;;;;;;4.00;0.80;;;11.10;99.90;;;;;;4993809;28;20559;-48
2023/02/20 11:22:00;;;;;;;5.18;1.17;;;11.10;99.90;;;;;;4995394;28;20054;-50
2023/02/20 11:24:27;;;;;;;3.03;1.00;;;11.20;99.90;;;;;;4995639;28;20405;-52
2023/02/20 11:26:53;;;;;;;2.47;1.00;;;11.20;99.90;;;;;;4995247;28;20557;-55
2023/02/20 11:29:20;;;;;;;3.75;1.10;;;11.30;99.90;;;;;;4995168;28;20121;-53
2023/02/20 11:31:48;;;;;;;2.58;1.10;;;11.30;99.90;;;;;;4995163;28;20093;-51
2023/02/20 11:34:15;;;;;;;1.60;0.90;;;11.40;99.90;;;;;;4995139;28;20065;-53
2023/02/20 11:36:44;;;;;;;3.30;0.90;;;11.30;99.90;;;;;;4995111;28;20046;-55
2023/02/20 11:39:10;;;;;;;2.33;1.05;;;11.30;99.90;;;;;;4994978;28;20042;-55
2023/02/20 11:41:38;;;;;;;2.33;1.00;;;11.20;99.90;;;;;;4993962;28;20056;-57
2023/02/20 11:44:05;;;;;;;4.80;1.35;;;11.30;99.90;;;;;;4993437;28;20046;-59
2023/02/20 11:46:32;;;;;;;1.70;0.90;;;11.30;99.90;;;;;;4994597;28;20061;-58
2023/02/20 11:48:59;;;;;;;2.70;0.85;;;11.30;99.90;;;;;;4994355;28;20042;-57
2023/02/20 11:51:26;;;;;;;2.20;1.20;;;11.30;99.90;;;;;;4994272;28;20089;-54
2023/02/20 11:53:53;;;;;;;3.55;1.10;;;11.40;99.90;;;;;;4993039;28;20045;-54
2023/02/20 11:56:20;;;;;;;6.82;1.73;;;11.40;99.90;;;;;;4995011;28;20100;-56
2023/02/20 11:58:47;;;;;;;5.47;1.05;;;11.50;99.90;;;;;;4994285;28;20129;-50
2023/02/20 12:01:14;;;;;;;3.60;0.98;;;11.50;99.90;;;;;;4994102;28;20053;-50
2023/02/20 12:03:40;;;;;;;3.65;1.52;;;11.50;99.90;;;;;;4994512;28;20041;-55
2023/02/20 12:06:07;;;;;;;4.07;1.33;;;11.50;99.90;;;;;;4994755;28;20042;-54
2023/02/20 12:08:34;;;;;;;10.85;3.20;;;11.60;99.90;;;;;;4994657;28;20544;-53
2023/02/20 12:11:01;;;;;;;5.32;1.40;;;11.60;99.90;;;;;;4994294;28;20046;-54
2023/02/20 12:13:28;;;;;;;3.75;1.00;;;11.70;99.90;;;;;;4994530;28;20042;-58
2023/02/20 12:15:55;;;;;;;2.63;1.20;;;11.70;99.90;;;;;;4994210;28;20051;-55
2023/02/20 12:18:21;;;;;;;5.05;1.25;;;11.60;99.90;;;;;;4994103;28;20406;-56
2023/02/20 12:20:48;;;;;;;3.40;1.38;;;11.50;99.90;;;;;;4993746;28;20394;-55
2023/02/20 12:23:15;;;;;;;3.10;1.05;;;11.40;99.90;;;;;;4994092;28;20057;-57
2023/02/20 12:25:42;;;;;;;2.75;1.00;;;11.40;99.90;;;;;;4994232;28;20413;-59
2023/02/20 12:28:08;;;;;;;3.33;1.20;;;11.40;99.90;;;;;;4992688;28;20046;-59
2023/02/20 12:30:35;;;;;;;1.80;0.95;;;11.50;99.90;;;;;;4993805;28;20606;-59
2023/02/20 12:33:02;;;;;;;3.00;1.13;;;11.70;99.90;;;;;;4993653;28;20063;-58
2023/02/20 12:35:29;;;;;;;4.80;0.90;;;11.80;99.90;;;;;;4993838;28;20073;-60
2023/02/20 12:37:56;;;;;;;2.10;0.90;;;12.00;99.90;;;;;;4992772;28;20062;-55
2023/02/20 12:40:23;;;;;;;3.40;1.10;;;12.00;99.90;;;;;;4994192;28;20389;-58
2023/02/20 12:42:50;;;;;;;3.55;1.10;;;12.00;99.90;;;;;;4993494;28;20043;-55
2023/02/20 12:45:17;;;;;;;3.00;1.02;;;12.00;99.90;;;;;;4994019;28;20473;-59
2023/02/20 12:47:43;;;;;;;1.85;1.10;;;11.90;99.90;;;;;;4994163;28;20113;-57
2023/02/20 12:50:10;;;;;;;1.85;1.13;;;11.90;99.90;;;;;;4993523;28;20050;-52
2023/02/20 12:52:37;;;;;;;5.28;1.15;;;11.90;99.90;;;;;;4993719;28;20042;-60
2023/02/20 12:55:04;;;;;;;3.88;0.93;;;12.00;99.90;;;;;;4993586;28;20048;-58
2023/02/20 12:57:31;;;;;;;1.83;1.05;;;12.00;99.90;;;;;;4992587;28;20383;-55
2023/02/20 12:59:57;;;;;;;3.58;1.05;;;12.10;99.90;;;;;;4993616;28;20042;-57
2023/02/20 13:02:25;;;;;;;2.42;1.20;;;12.10;99.90;;;;;;4993447;28;20054;-58
2023/02/20 13:05:06;;;;;;;3.03;1.13;;;12.10;99.90;;;;;;4993911;28;20070;-59
2023/02/20 13:07:33;;;;;;;2.33;1.23;;;12.10;99.90;;;;;;4993256;28;20499;-58
2023/02/20 13:10:00;;;;;;;3.45;1.40;;;12.20;99.90;;;;;;4993582;28;20085;-60
2023/02/20 13:12:26;;;;;;;4.40;1.10;;;12.20;99.90;;;;;;4993593;28;20552;-59